Terminal Aerodrome Forecast
Issued by NWS Blacksburg, VA

Current Version | Previous Version | Text Only | Print | Product List | Glossary Off
Versions: 1 2 3 4 5 6 7 8 9 10 11 12 13 14 15 16 17 18 19 20 21 22 23 24 25 26 27 28 29 30 31 32 33 34

000
FTUS41 KRNK 240521
TAFBLF
TAF
KBLF 240521Z 2406/2506 30007KT P6SM SKC
     FM241400 29009KT P6SM FEW250
     FM250000 23004KT P6SM SCT080 OVC250=

USA.gov is the U.S. government's official web portal to all federal, state and local government web resources and services.